DFEK weather

Koupela Airport
Koupela, Kouritenga, Burkina Faso

Public forecast

Using degrees Celsius for public forecast. Weather courtesy of forecast.io.

Closest aviation weather report (METAR) to Koupela Airport

Report is more than 6 hours old.

Closest report is Fada N'gourma Airport, 39.0 nm (72.2 km) ESE. Retrieved 2009/09/21 17:00 UTC (10 years ago):

DFEF 211700Z 00000KT 9999 FEW0226 TCU BKN260 30/25

Closest aviation forecast (TAF) to Koupela Airport

Closest forecast is Ouagadougou Airport, 72.0 nm (133.4 km) W. Retrieved 2019-10-14 00:21 UTC (3 minutes ago):

TAF DFFD 132300Z 1400/1506 26008KT 9999 FEW020 PROB30 TEMPO 1416/1422 4000 TSRA SCT020 FEW036CB